Time;durP1;ratioP1;P1;durP2;ratioP2;P2;SDS_P1;SDS_P2;PMS_P1;PMS_P2;Temp;Humidity;BMP_temperature;BMP_pressure;BME280_temperature;BME280_humidity;BME280_pressure;Samples;Min_cycle;Max_cycle;Signal;HPM_P1;HPM_P2
2022/11/25 00:01:50;;;;;;;29.60;10.50;;;5.00;99.90;;;;;;5073788;28;20187;-66
2022/11/25 00:04:17;;;;;;;26.10;10.30;;;5.00;99.90;;;;;;5077653;28;20214;-67
2022/11/25 00:06:44;;;;;;;31.83;11.90;;;5.00;99.90;;;;;;5070045;28;20223;-66
2022/11/25 00:09:12;;;;;;;60.97;20.43;;;5.10;99.90;;;;;;5089004;28;20250;-67
2022/11/25 00:11:41;;;;;;;42.57;16.13;;;5.10;99.90;;;;;;5076959;28;20203;-67
2022/11/25 00:14:12;;;;;;;40.27;14.43;;;5.10;99.90;;;;;;5079351;28;20285;-67
2022/11/25 00:16:39;;;;;;;39.77;13.93;;;5.10;99.90;;;;;;5087423;28;20212;-66
2022/11/25 00:19:06;;;;;;;59.10;19.80;;;5.10;99.90;;;;;;5087867;28;20194;-66
2022/11/25 00:21:34;;;;;;;55.87;19.03;;;5.20;99.90;;;;;;5087345;28;20608;-67
2022/11/25 00:24:03;;;;;;;40.73;14.90;;;5.10;99.90;;;;;;5056197;28;20562;-67
2022/11/25 00:26:32;;;;;;;44.83;15.97;;;5.10;99.90;;;;;;5081225;28;20194;-67
2022/11/25 00:29:01;;;;;;;67.60;21.90;;;5.20;99.90;;;;;;5085832;28;20212;-67
2022/11/25 00:31:31;;;;;;;55.50;18.53;;;5.10;99.90;;;;;;5077531;28;20216;-65
2022/11/25 00:33:59;;;;;;;75.27;23.50;;;5.10;99.90;;;;;;5065260;28;20320;-66
2022/11/25 00:36:27;;;;;;;53.50;19.10;;;5.10;99.90;;;;;;5043654;28;20206;-66
2022/11/25 00:38:56;;;;;;;47.93;16.87;;;5.10;99.90;;;;;;5046314;28;20203;-66
2022/11/25 00:46:55;;;;;;;58.83;19.93;;;5.10;99.90;;;;;;5060322;28;20223;-65
2022/11/25 00:49:22;;;;;;;65.13;21.03;;;5.10;99.90;;;;;;5055777;28;20269;-66
2022/11/25 00:51:49;;;;;;;85.70;26.53;;;5.10;99.90;;;;;;5033163;28;20878;-66
2022/11/25 00:54:16;;;;;;;78.17;24.90;;;5.10;99.90;;;;;;5058607;28;20609;-66
2022/11/25 00:56:43;;;;;;;73.77;25.27;;;5.00;99.90;;;;;;5048356;28;20225;-66
2022/11/25 00:59:10;;;;;;;59.97;21.13;;;4.90;99.90;;;;;;5064813;28;20248;-66
2022/11/25 01:01:38;;;;;;;49.43;17.90;;;4.90;99.90;;;;;;5059733;28;20195;-65
2022/11/25 01:04:07;;;;;;;44.00;15.97;;;5.00;99.90;;;;;;5059271;28;20278;-66
2022/11/25 01:06:35;;;;;;;67.97;21.90;;;4.90;99.90;;;;;;5063799;28;20201;-66
2022/11/25 01:09:02;;;;;;;68.03;22.40;;;4.90;99.90;;;;;;5064359;28;20604;-66
2022/11/25 01:11:30;;;;;;;66.33;21.83;;;4.90;99.90;;;;;;5058711;28;20278;-66
2022/11/25 01:13:57;;;;;;;69.60;22.53;;;4.90;99.90;;;;;;5042803;28;20743;-66
2022/11/25 01:16:25;;;;;;;53.77;18.57;;;4.90;99.90;;;;;;5038569;28;20680;-66
2022/11/25 01:18:53;;;;;;;60.87;21.60;;;4.90;99.90;;;;;;5063885;28;20217;-66
2022/11/25 01:21:23;;;;;;;44.07;15.93;;;4.90;99.90;;;;;;5049346;28;20605;-66
2022/11/25 01:23:51;;;;;;;45.13;15.40;;;4.90;99.90;;;;;;5065216;28;20273;-66
2022/11/25 01:26:19;;;;;;;52.67;17.90;;;4.80;99.90;;;;;;5055377;28;20253;-66
2022/11/25 01:28:47;;;;;;;45.77;15.57;;;4.80;99.90;;;;;;5064615;28;20214;-66
2022/11/25 01:31:16;;;;;;;39.17;13.97;;;4.80;99.90;;;;;;5058546;28;20292;-66
2022/11/25 01:33:45;;;;;;;49.93;16.33;;;4.80;99.90;;;;;;5039420;28;20288;-65
2022/11/25 01:36:15;;;;;;;42.50;15.50;;;4.80;99.90;;;;;;5063744;28;20245;-66
2022/11/25 01:38:45;;;;;;;60.80;20.90;;;4.80;99.90;;;;;;5050833;28;20205;-65
2022/11/25 01:41:14;;;;;;;80.90;25.33;;;4.80;99.90;;;;;;5056944;28;20251;-66
2022/11/25 01:43:42;;;;;;;74.93;23.87;;;4.80;99.90;;;;;;5054151;28;20219;-66
2022/11/25 01:46:18;;;;;;;68.90;22.97;;;4.70;99.90;;;;;;5065423;28;20205;-66
2022/11/25 01:48:51;;;;;;;62.67;21.53;;;4.70;99.90;;;;;;5053013;28;20277;-66
2022/11/25 01:51:23;;;;;;;54.77;19.03;;;4.70;99.90;;;;;;5066374;28;20194;-66
2022/11/25 01:53:52;;;;;;;69.60;22.20;;;4.80;99.90;;;;;;5039104;28;20214;-67
2022/11/25 01:56:21;;;;;;;59.63;19.17;;;4.70;99.90;;;;;;5044174;28;20577;-66
2022/11/25 01:58:49;;;;;;;47.40;17.07;;;4.70;99.90;;;;;;5048385;28;20342;-67
2022/11/25 02:01:17;;;;;;;72.33;22.73;;;4.70;99.90;;;;;;5041896;28;20201;-66
2022/11/25 02:03:50;;;;;;;51.53;18.43;;;4.70;99.90;;;;;;5053450;28;20290;-66
2022/11/25 02:06:23;;;;;;;58.70;19.50;;;4.60;99.90;;;;;;5055221;28;20194;-66
2022/11/25 02:08:55;;;;;;;60.40;20.27;;;4.60;99.90;;;;;;5044871;28;20200;-66
2022/11/25 02:11:25;;;;;;;67.00;21.20;;;4.70;99.90;;;;;;5038880;28;20204;-67
2022/11/25 02:13:53;;;;;;;68.30;22.77;;;4.60;99.90;;;;;;5044865;28;20214;-66
2022/11/25 02:16:20;;;;;;;53.93;18.37;;;4.60;99.90;;;;;;5059464;28;20524;-66
2022/11/25 02:18:49;;;;;;;56.30;18.53;;;4.70;99.90;;;;;;5059530;28;20263;-66
2022/11/25 02:21:20;;;;;;;63.90;20.13;;;4.70;99.90;;;;;;5061926;28;20280;-66
2022/11/25 02:23:52;;;;;;;59.17;19.63;;;4.70;99.90;;;;;;5040427;28;20227;-66
2022/11/25 02:26:21;;;;;;;45.80;17.40;;;4.70;99.90;;;;;;5042982;28;20226;-66
2022/11/25 02:28:50;;;;;;;42.50;14.97;;;4.70;99.90;;;;;;5046223;28;20202;-67
2022/11/25 02:31:20;;;;;;;45.57;16.37;;;4.80;99.90;;;;;;5043209;28;20225;-66
2022/11/25 02:33:47;;;;;;;51.57;17.83;;;4.80;99.90;;;;;;5042500;28;20424;-66
2022/11/25 02:36:18;;;;;;;43.93;15.67;;;4.80;99.90;;;;;;5046752;28;20194;-67
2022/11/25 02:38:49;;;;;;;42.50;14.63;;;4.80;99.90;;;;;;5061292;28;20726;-67
2022/11/25 02:41:19;;;;;;;36.33;13.00;;;4.90;99.90;;;;;;5040574;28;20785;-67
2022/11/25 02:43:52;;;;;;;35.47;12.47;;;4.90;99.90;;;;;;5047691;28;20198;-66
2022/11/25 02:46:23;;;;;;;40.63;14.47;;;4.90;99.90;;;;;;5047129;28;20647;-67
2022/11/25 02:48:51;;;;;;;38.00;14.03;;;4.90;99.90;;;;;;5053680;28;20197;-67
2022/11/25 02:51:21;;;;;;;34.57;12.33;;;4.90;99.90;;;;;;5036512;28;20201;-66
2022/11/25 02:53:48;;;;;;;34.07;12.53;;;4.90;99.90;;;;;;5045787;28;20304;-67
2022/11/25 02:56:20;;;;;;;30.97;12.07;;;4.90;99.90;;;;;;5039780;28;20665;-67
2022/11/25 02:58:47;;;;;;;45.93;15.87;;;4.90;99.90;;;;;;5042046;28;20538;-67
2022/11/25 03:01:15;;;;;;;65.10;21.13;;;4.10;99.90;;;;;;5045417;28;20283;-66
2022/11/25 03:03:43;;;;;;;69.97;21.97;;;4.90;99.90;;;;;;5067327;28;20187;-66
2022/11/25 03:06:10;;;;;;;63.50;21.80;;;4.90;99.90;;;;;;5041686;28;20195;-66
2022/11/25 03:08:38;;;;;;;54.87;18.80;;;4.90;99.90;;;;;;5040156;28;20197;-67
2022/11/25 03:11:08;;;;;;;55.20;18.77;;;4.90;99.90;;;;;;5039232;28;20669;-67
2022/11/25 03:13:35;;;;;;;43.13;15.30;;;4.90;99.90;;;;;;5035918;28;20225;-67
2022/11/25 03:16:03;;;;;;;40.57;13.87;;;4.90;99.90;;;;;;5045104;28;20511;-67
2022/11/25 03:18:32;;;;;;;35.23;12.13;;;4.90;99.90;;;;;;5058912;28;20237;-67
2022/11/25 03:20:59;;;;;;;32.67;11.37;;;5.00;99.90;;;;;;5047678;28;20559;-67
2022/11/25 03:23:26;;;;;;;25.97;9.67;;;5.00;99.90;;;;;;5055796;28;20274;-67
2022/11/25 03:25:57;;;;;;;25.33;9.37;;;5.10;99.90;;;;;;5041540;28;20194;-67
2022/11/25 03:28:24;;;;;;;18.67;7.93;;;5.10;99.90;;;;;;5060660;28;20673;-67
2022/11/25 03:30:51;;;;;;;29.40;10.50;;;5.10;99.90;;;;;;5039880;28;20577;-67
2022/11/25 03:33:19;;;;;;;31.40;11.67;;;5.10;99.90;;;;;;5039550;28;20235;-67
2022/11/25 03:35:48;;;;;;;25.23;10.00;;;5.10;99.90;;;;;;5045101;28;20565;-66
2022/11/25 03:38:15;;;;;;;22.97;8.80;;;5.20;99.90;;;;;;5039224;28;20290;-66
2022/11/25 03:40:42;;;;;;;18.23;7.73;;;5.20;99.90;;;;;;5046817;28;20199;-66
2022/11/25 03:43:09;;;;;;;24.47;8.43;;;5.30;99.90;;;;;;5044969;28;21061;-67
2022/11/25 03:45:39;;;;;;;21.77;8.40;;;5.20;99.90;;;;;;5042621;28;20259;-66
2022/11/25 03:48:08;;;;;;;22.00;8.50;;;5.20;99.90;;;;;;5047814;28;20616;-66
2022/11/25 03:50:37;;;;;;;21.40;8.37;;;5.20;99.90;;;;;;5036055;28;20204;-66
2022/11/25 03:53:05;;;;;;;35.07;11.93;;;5.30;99.90;;;;;;5037931;28;20206;-66
2022/11/25 03:55:32;;;;;;;38.60;12.83;;;5.30;99.90;;;;;;5042582;28;20219;-66
2022/11/25 03:58:00;;;;;;;58.40;19.33;;;5.20;99.90;;;;;;5053473;28;20204;-66
2022/11/25 04:00:27;;;;;;;54.13;18.03;;;5.30;99.90;;;;;;5061886;28;20198;-66
2022/11/25 04:03:01;;;;;;;47.43;16.93;;;5.10;99.90;;;;;;5048514;28;20689;-66
2022/11/25 04:05:31;;;;;;;77.40;23.50;;;5.20;99.90;;;;;;5041740;28;20244;-68
2022/11/25 04:08:02;;;;;;;74.60;23.70;;;5.10;99.90;;;;;;5040246;28;20640;-66
2022/11/25 04:10:32;;;;;;;64.33;20.97;;;5.10;99.90;;;;;;5044581;28;20213;-66
2022/11/25 04:12:58;;;;;;;48.37;15.50;;;5.00;99.90;;;;;;5065929;28;20638;-66
2022/11/25 04:15:33;;;;;;;43.00;14.57;;;5.00;99.90;;;;;;5047777;28;20189;-67
2022/11/25 04:18:01;;;;;;;36.87;13.23;;;4.90;99.90;;;;;;5043761;28;20202;-66
2022/11/25 04:20:28;;;;;;;39.07;13.20;;;5.00;99.90;;;;;;5044369;28;20279;-66
2022/11/25 04:23:05;;;;;;;29.43;10.90;;;5.00;99.90;;;;;;5040751;28;20216;-66
2022/11/25 04:25:34;;;;;;;35.63;12.47;;;5.00;99.90;;;;;;5048324;28;20204;-66
2022/11/25 04:28:11;;;;;;;29.10;10.83;;;5.10;99.90;;;;;;5057543;28;20187;-66
2022/11/25 04:30:39;;;;;;;31.40;10.87;;;5.10;99.90;;;;;;5048161;28;20249;-66
2022/11/25 04:33:06;;;;;;;32.67;11.43;;;5.20;99.90;;;;;;5047877;28;20761;-66
2022/11/25 04:35:33;;;;;;;36.17;11.00;;;5.20;99.90;;;;;;5055689;28;20734;-66
2022/11/25 04:38:01;;;;;;;29.27;10.67;;;5.20;99.90;;;;;;5061649;28;20200;-66
2022/11/25 04:40:29;;;;;;;22.83;8.93;;;5.20;99.90;;;;;;5064913;28;20698;-67
2022/11/25 04:43:12;;;;;;;24.43;8.93;;;5.20;99.90;;;;;;5061949;28;20663;-67
2022/11/25 04:45:47;;;;;;;21.97;8.17;;;5.20;99.90;;;;;;5063109;28;20618;-67
2022/11/25 04:48:14;;;;;;;35.57;12.77;;;5.20;99.90;;;;;;5055402;28;20597;-67
2022/11/25 04:50:42;;;;;;;34.03;12.53;;;5.20;99.90;;;;;;5050897;28;20200;-67
2022/11/25 04:53:13;;;;;;;33.20;12.70;;;5.20;99.90;;;;;;5053214;28;20643;-67
2022/11/25 04:55:40;;;;;;;29.23;11.07;;;5.20;99.90;;;;;;5067159;28;20209;-67
2022/11/25 04:59:38;;;;;;;25.00;9.60;;;5.20;99.90;;;;;;5067284;28;20223;-67
2022/11/25 05:01:00;;;;;;;23.10;9.13;;;5.20;99.90;;;;;;5057766;28;20191;-67
2022/11/25 05:03:28;;;;;;;18.43;7.77;;;5.30;99.90;;;;;;5057068;28;20242;-67
2022/11/25 05:05:56;;;;;;;34.80;12.03;;;5.20;99.90;;;;;;5067773;28;20241;-67
2022/11/25 05:08:24;;;;;;;27.37;10.07;;;5.20;99.90;;;;;;5057105;28;20210;-65
2022/11/25 05:10:51;;;;;;;40.93;13.67;;;5.20;99.90;;;;;;5061395;28;20207;-65
2022/11/25 05:13:19;;;;;;;35.23;12.20;;;5.20;99.90;;;;;;5065854;28;20657;-66
2022/11/25 05:15:47;;;;;;;28.67;10.67;;;5.20;99.90;;;;;;5059130;28;20297;-67
2022/11/25 05:18:16;;;;;;;34.80;11.73;;;5.20;99.90;;;;;;5057373;28;20631;-67
2022/11/25 05:20:45;;;;;;;33.50;12.47;;;5.20;99.90;;;;;;5066641;28;20278;-67
2022/11/25 05:23:16;;;;;;;32.63;12.03;;;5.20;99.90;;;;;;5064838;28;20293;-67
2022/11/25 05:25:43;;;;;;;32.07;12.33;;;5.20;99.90;;;;;;5080282;28;20199;-66
2022/11/25 05:28:31;;;;;;;37.80;12.47;;;5.20;99.90;;;;;;5062669;28;20283;-66
2022/11/25 05:30:58;;;;;;;35.40;12.67;;;5.20;99.90;;;;;;5054480;28;20194;-66
2022/11/25 05:33:25;;;;;;;39.37;13.60;;;5.20;99.90;;;;;;5054279;28;20237;-65
2022/11/25 05:35:57;;;;;;;33.73;11.93;;;5.20;99.90;;;;;;5045670;28;20219;-67
2022/11/25 05:38:29;;;;;;;32.53;12.00;;;5.10;99.90;;;;;;5042973;28;20684;-67
2022/11/25 05:41:01;;;;;;;27.27;10.43;;;5.10;99.90;;;;;;5041077;28;20206;-67
2022/11/25 05:43:29;;;;;;;36.23;13.70;;;5.10;99.90;;;;;;5044446;28;20650;-67
2022/11/25 05:45:57;;;;;;;29.70;11.37;;;5.10;99.90;;;;;;5062645;28;20194;-67
2022/11/25 05:48:25;;;;;;;29.90;11.57;;;5.20;99.90;;;;;;5039041;28;20199;-67
2022/11/25 05:50:52;;;;;;;30.20;11.33;;;5.20;99.90;;;;;;5033489;28;20205;-67
2022/11/25 05:53:23;;;;;;;31.70;11.67;;;5.20;99.90;;;;;;5048778;28;20211;-67
2022/11/25 05:55:56;;;;;;;30.17;11.43;;;5.20;99.90;;;;;;5044751;28;20194;-66
2022/11/25 05:58:43;;;;;;;38.30;13.30;;;5.20;99.90;;;;;;5033246;28;20598;-67
2022/11/25 06:01:14;;;;;;;37.17;13.33;;;5.20;99.90;;;;;;5044638;28;20675;-67
2022/11/25 06:03:42;;;;;;;39.83;14.23;;;5.20;99.90;;;;;;5047044;28;20225;-67
2022/11/25 06:06:11;;;;;;;50.53;16.43;;;5.20;99.90;;;;;;5038231;28;20204;-66
2022/11/25 06:08:39;;;;;;;53.50;18.07;;;5.20;99.90;;;;;;5042325;28;20577;-66
2022/11/25 06:11:07;;;;;;;47.30;16.03;;;5.20;99.90;;;;;;5042667;28;20293;-66
2022/11/25 06:13:35;;;;;;;45.60;16.00;;;5.10;99.90;;;;;;5045208;28;20218;-66
2022/11/25 06:16:07;;;;;;;38.80;13.70;;;5.10;99.90;;;;;;5045083;28;20332;-67
2022/11/25 06:18:37;;;;;;;34.53;13.57;;;5.10;99.90;;;;;;5043905;28;20205;-66
2022/11/25 06:21:07;;;;;;;21.23;8.93;;;5.20;99.90;;;;;;5044601;28;20214;-66
2022/11/25 06:23:34;;;;;;;29.00;11.30;;;5.10;99.90;;;;;;5044572;28;20205;-67
2022/11/25 06:26:06;;;;;;;27.43;10.53;;;5.20;99.90;;;;;;5044297;28;20206;-67
2022/11/25 06:28:34;;;;;;;20.97;8.53;;;5.20;99.90;;;;;;5045788;28;20214;-66
2022/11/25 06:31:06;;;;;;;24.73;10.13;;;5.20;99.90;;;;;;5047871;28;20843;-66
2022/11/25 06:33:39;;;;;;;23.93;9.00;;;5.20;99.90;;;;;;5053104;28;20229;-66
2022/11/25 06:36:12;;;;;;;17.07;7.83;;;5.20;99.90;;;;;;5057398;28;20574;-67
2022/11/25 06:38:39;;;;;;;21.70;9.33;;;5.20;99.90;;;;;;5058072;28;20580;-67
2022/11/25 06:41:06;;;;;;;26.70;10.60;;;5.20;99.90;;;;;;5065694;28;20674;-66
2022/11/25 06:43:33;;;;;;;31.90;12.77;;;5.20;99.90;;;;;;5061327;28;20693;-67
2022/11/25 06:46:05;;;;;;;30.63;11.60;;;5.20;99.90;;;;;;5049679;28;20202;-67
2022/11/25 06:48:32;;;;;;;29.80;11.27;;;5.20;99.90;;;;;;5051207;28;20191;-66
2022/11/25 06:51:03;;;;;;;24.20;9.60;;;5.20;99.90;;;;;;5051282;28;20192;-67
2022/11/25 06:53:31;;;;;;;23.50;9.40;;;5.20;99.90;;;;;;5053543;28;20302;-66
2022/11/25 06:56:05;;;;;;;22.30;8.73;;;5.20;99.90;;;;;;5050284;28;20278;-66
2022/11/25 06:58:33;;;;;;;21.00;8.43;;;5.20;99.90;;;;;;5067945;28;20252;-66
2022/11/25 07:01:02;;;;;;;29.97;9.77;;;5.30;99.90;;;;;;5056558;28;20190;-66
2022/11/25 07:03:29;;;;;;;28.90;12.00;;;5.30;99.90;;;;;;5053929;28;20191;-66
2022/11/25 07:05:57;;;;;;;44.93;15.70;;;5.30;99.90;;;;;;5060086;28;20637;-66
2022/11/25 07:08:26;;;;;;;54.40;18.60;;;5.30;99.90;;;;;;5074945;28;20333;-66
2022/11/25 07:10:54;;;;;;;55.37;20.17;;;5.20;99.90;;;;;;5053644;28;20190;-66
2022/11/25 07:13:21;;;;;;;46.10;17.53;;;5.20;99.90;;;;;;5050006;28;20234;-66
2022/11/25 07:15:48;;;;;;;45.33;15.53;;;5.20;99.90;;;;;;5052696;28;20198;-66
2022/11/25 07:18:15;;;;;;;32.37;13.53;;;5.20;99.90;;;;;;5067667;28;20584;-66
2022/11/25 07:20:42;;;;;;;46.47;16.87;;;5.20;99.90;;;;;;5062942;28;20655;-66
2022/11/25 07:23:09;;;;;;;32.60;12.50;;;5.20;99.90;;;;;;5066219;28;20306;-67
2022/11/25 07:25:37;;;;;;;31.10;12.53;;;5.20;99.90;;;;;;5062689;28;20230;-67
2022/11/25 07:28:04;;;;;;;31.60;12.03;;;5.20;99.90;;;;;;5068511;28;20192;-67
2022/11/25 07:30:32;;;;;;;25.70;10.30;;;5.30;99.90;;;;;;5058818;28;20288;-67
2022/11/25 07:32:59;;;;;;;26.87;11.03;;;5.30;99.90;;;;;;5071260;28;20705;-67
2022/11/25 07:35:26;;;;;;;44.83;15.90;;;5.30;99.90;;;;;;5079321;28;20627;-67
2022/11/25 07:37:53;;;;;;;49.70;17.90;;;5.30;99.90;;;;;;5082032;28;20614;-67
2022/11/25 07:40:20;;;;;;;49.83;18.20;;;5.30;99.90;;;;;;5056591;28;20206;-65
2022/11/25 07:42:48;;;;;;;58.90;20.63;;;5.30;99.90;;;;;;5083009;28;20233;-67
2022/11/25 07:45:16;;;;;;;72.70;25.40;;;5.20;99.90;;;;;;5063866;28;20191;-67
2022/11/25 07:47:45;;;;;;;63.90;22.50;;;5.20;99.90;;;;;;5063987;28;20237;-67
2022/11/25 07:50:12;;;;;;;53.97;19.50;;;5.20;99.90;;;;;;5072262;28;20317;-67
2022/11/25 07:52:40;;;;;;;66.63;24.17;;;5.20;99.90;;;;;;5074915;28;20182;-66
2022/11/25 07:55:08;;;;;;;70.50;24.60;;;5.10;99.90;;;;;;5084084;28;20738;-67
2022/11/25 07:57:35;;;;;;;63.47;21.70;;;5.10;99.90;;;;;;5073782;28;20189;-66
2022/11/25 08:00:05;;;;;;;61.50;22.10;;;5.10;99.90;;;;;;5083677;28;20263;-66
2022/11/25 08:02:38;;;;;;;57.73;20.93;;;5.10;99.90;;;;;;5075094;28;20688;-66
2022/11/25 08:05:06;;;;;;;62.60;23.03;;;5.10;99.90;;;;;;5075105;28;20714;-66
2022/11/25 08:07:33;;;;;;;53.77;19.70;;;5.10;99.90;;;;;;5078560;28;20610;-66
2022/11/25 08:10:00;;;;;;;62.33;22.67;;;5.10;99.90;;;;;;5076971;28;20286;-66
2022/11/25 08:12:27;;;;;;;54.57;20.10;;;5.10;99.90;;;;;;5056680;28;20202;-66
2022/11/25 08:14:55;;;;;;;53.27;19.77;;;5.10;99.90;;;;;;5083642;28;20205;-66
2022/11/25 08:17:23;;;;;;;63.27;22.03;;;5.10;99.90;;;;;;5062201;28;20444;-66
2022/11/25 08:19:50;;;;;;;47.60;19.83;;;5.10;99.90;;;;;;5075915;28;20198;-66
2022/11/25 08:22:17;;;;;;;61.43;22.80;;;5.10;99.90;;;;;;5075916;28;20235;-66
2022/11/25 08:24:44;;;;;;;60.87;21.50;;;5.00;99.90;;;;;;5062349;28;20565;-66
2022/11/25 08:27:11;;;;;;;52.60;19.37;;;5.10;99.90;;;;;;5078628;28;20282;-66
2022/11/25 08:29:38;;;;;;;57.23;21.07;;;5.10;99.90;;;;;;5058837;28;20314;-66
2022/11/25 08:32:07;;;;;;;51.90;19.20;;;5.10;99.90;;;;;;5075589;28;20623;-66
2022/11/25 08:34:35;;;;;;;53.37;20.87;;;5.10;99.90;;;;;;5075395;28;20228;-66
2022/11/25 08:37:04;;;;;;;50.07;18.83;;;5.10;99.90;;;;;;5061099;28;20702;-67
2022/11/25 08:39:31;;;;;;;39.33;16.07;;;5.10;99.90;;;;;;5058122;28;20242;-66
2022/11/25 08:41:58;;;;;;;47.03;17.30;;;5.10;99.90;;;;;;5073769;28;20214;-66
2022/11/25 08:44:28;;;;;;;46.93;18.80;;;5.10;99.90;;;;;;5076577;28;20281;-67
2022/11/25 08:46:55;;;;;;;45.80;17.97;;;5.10;99.90;;;;;;5056195;28;20193;-66
2022/11/25 08:49:25;;;;;;;46.60;17.67;;;5.10;99.90;;;;;;5076568;28;20202;-66
2022/11/25 08:51:53;;;;;;;61.67;22.27;;;5.10;99.90;;;;;;5077605;28;20201;-66
2022/11/25 08:54:20;;;;;;;53.70;19.70;;;5.20;99.90;;;;;;5064672;28;20245;-66
2022/11/25 08:56:47;;;;;;;50.90;18.70;;;5.10;99.90;;;;;;5079879;28;20284;-66
2022/11/25 08:59:14;;;;;;;41.00;15.73;;;5.10;99.90;;;;;;5085270;28;20286;-66
2022/11/25 09:01:41;;;;;;;31.87;14.20;;;5.10;99.90;;;;;;5070826;28;20273;-66
2022/11/25 09:04:08;;;;;;;39.87;15.87;;;5.10;99.90;;;;;;5077045;28;20212;-65
2022/11/25 09:06:35;;;;;;;29.07;12.60;;;5.10;99.90;;;;;;5062846;28;20289;-66
2022/11/25 09:09:04;;;;;;;43.00;15.93;;;5.10;99.90;;;;;;5066898;28;20221;-66
2022/11/25 09:11:32;;;;;;;44.10;16.90;;;5.10;99.90;;;;;;5075632;28;20185;-67
2022/11/25 09:13:59;;;;;;;42.00;17.30;;;5.10;99.90;;;;;;5080274;28;20243;-67
2022/11/25 09:16:25;;;;;;;53.23;20.43;;;5.10;99.90;;;;;;5065927;28;20208;-66
2022/11/25 09:18:52;;;;;;;47.40;18.10;;;5.10;99.90;;;;;;5076181;28;20550;-66
2022/11/25 09:21:19;;;;;;;39.07;17.87;;;5.10;99.90;;;;;;5076496;28;20209;-67
2022/11/25 09:23:50;;;;;;;35.10;14.90;;;5.00;99.90;;;;;;5080084;28;20193;-67
2022/11/25 09:26:22;;;;;;;33.07;13.77;;;5.10;99.90;;;;;;5078779;28;20194;-66
2022/11/25 09:28:49;;;;;;;24.43;11.10;;;5.10;99.90;;;;;;5062263;28;20210;-66
2022/11/25 09:31:16;;;;;;;33.93;13.30;;;5.10;99.90;;;;;;5076142;28;20281;-67
2022/11/25 09:33:43;;;;;;;35.03;13.77;;;5.20;99.90;;;;;;5065858;28;20223;-65
2022/11/25 09:36:12;;;;;;;40.43;14.60;;;5.20;99.90;;;;;;5044314;28;20324;-66
2022/11/25 09:38:39;;;;;;;35.07;13.70;;;5.10;99.90;;;;;;5058006;28;20285;-66
2022/11/25 09:41:13;;;;;;;33.27;12.43;;;5.10;99.90;;;;;;5057435;28;20241;-66
2022/11/25 09:46:50;;;;;;;32.00;12.77;;;5.10;99.90;;;;;;5044628;28;20197;-67
2022/11/25 09:49:44;;;;;;;34.67;13.03;;;5.10;99.90;;;;;;5058528;28;20189;-67
2022/11/25 09:52:19;;;;;;;35.70;14.10;;;5.10;99.90;;;;;;5050217;28;20222;-66
2022/11/25 09:54:53;;;;;;;34.13;12.77;;;5.10;99.90;;;;;;5058905;28;20271;-67
2022/11/25 09:57:26;;;;;;;35.33;13.30;;;5.10;99.90;;;;;;5054142;28;20524;-70
2022/11/25 10:00:05;;;;;;;39.43;14.60;;;5.10;99.90;;;;;;5045494;28;20289;-67
2022/11/25 10:02:43;;;;;;;48.07;16.83;;;5.10;99.90;;;;;;5055020;28;20196;-67
2022/11/25 10:05:16;;;;;;;44.37;16.77;;;5.00;99.90;;;;;;5059072;28;20622;-67
2022/11/25 10:07:46;;;;;;;42.07;16.17;;;5.00;99.90;;;;;;5063499;28;20697;-67
2022/11/25 10:10:21;;;;;;;39.93;14.13;;;5.00;99.90;;;;;;5053996;28;20187;-68
2022/11/25 10:12:49;;;;;;;32.87;12.00;;;5.00;99.90;;;;;;5040045;28;20189;-68
2022/11/25 10:15:25;;;;;;;42.90;15.40;;;5.00;99.90;;;;;;5062646;28;20210;-67
2022/11/25 10:17:56;;;;;;;46.60;18.00;;;5.00;99.90;;;;;;5056777;28;20268;-67
2022/11/25 10:20:24;;;;;;;44.50;17.40;;;5.00;99.90;;;;;;5034843;28;20224;-67
2022/11/25 10:22:55;;;;;;;39.97;16.33;;;5.00;99.90;;;;;;5057540;28;20226;-67
2022/11/25 10:29:32;;;;;;;32.77;13.63;;;4.90;99.90;;;;;;4999370;28;21023;-62
2022/11/25 10:32:18;;;;;;;31.70;13.07;;;4.90;99.90;;;;;;5005325;28;20242;-62
2022/11/25 10:34:49;;;;;;;27.00;12.27;;;4.90;99.90;;;;;;5003239;28;20206;-63
2022/11/25 10:37:25;;;;;;;28.90;11.87;;;4.90;99.90;;;;;;5006106;28;20202;-62
2022/11/25 10:39:52;;;;;;;25.20;11.47;;;4.80;99.90;;;;;;5008102;28;20203;-63
2022/11/25 10:42:21;;;;;;;22.70;10.73;;;4.80;99.90;;;;;;5005301;28;20670;-62
2022/11/25 10:44:49;;;;;;;25.77;10.83;;;4.80;99.90;;;;;;5006992;28;20294;-63
2022/11/25 10:47:28;;;;;;;23.43;9.73;;;4.80;99.90;;;;;;5005552;28;20387;-62
2022/11/25 10:50:11;;;;;;;28.17;11.77;;;4.80;99.90;;;;;;5006143;28;20633;-62
2022/11/25 10:52:44;;;;;;;29.80;11.73;;;4.80;99.90;;;;;;5005999;28;20187;-62
2022/11/25 10:55:14;;;;;;;28.03;12.63;;;4.90;99.90;;;;;;5009889;28;20630;-62
2022/11/25 10:57:42;;;;;;;26.00;11.70;;;4.90;99.90;;;;;;5010467;28;20539;-62
2022/11/25 11:00:25;;;;;;;23.60;11.13;;;4.90;99.90;;;;;;5007366;28;20214;-62
2022/11/25 11:02:54;;;;;;;27.60;11.13;;;4.90;99.90;;;;;;5010518;28;20656;-63
2022/11/25 11:05:24;;;;;;;26.33;12.83;;;4.90;99.90;;;;;;5007453;28;20216;-62
2022/11/25 11:08:16;;;;;;;27.13;11.67;;;4.90;99.90;;;;;;5010985;28;20436;-63
2022/11/25 11:10:43;;;;;;;18.47;9.30;;;4.90;99.90;;;;;;5012861;28;20678;-64
2022/11/25 11:13:22;;;;;;;19.77;9.40;;;5.00;99.90;;;;;;5012562;28;20798;-63
2022/11/25 11:15:50;;;;;;;25.63;12.20;;;5.00;99.90;;;;;;5010865;28;20220;-64
2022/11/25 11:18:28;;;;;;;18.63;9.47;;;5.00;99.90;;;;;;5012142;28;20305;-63
2022/11/25 11:20:57;;;;;;;23.50;10.43;;;5.00;99.90;;;;;;5007934;28;20209;-63
2022/11/25 11:23:26;;;;;;;20.13;9.90;;;5.00;99.90;;;;;;5014032;28;20698;-62
2022/11/25 11:26:01;;;;;;;17.00;8.73;;;5.10;99.90;;;;;;5011675;28;20251;-63
2022/11/25 11:28:37;;;;;;;14.33;7.73;;;5.10;99.90;;;;;;5014735;28;20199;-63
2022/11/25 11:31:07;;;;;;;22.50;10.10;;;5.10;99.90;;;;;;5017461;28;20447;-63
2022/11/25 11:33:40;;;;;;;21.13;10.57;;;5.10;99.90;;;;;;5024058;28;20229;-64
2022/11/25 11:36:34;;;;;;;23.77;10.93;;;5.10;99.90;;;;;;5023463;28;20226;-63
2022/11/25 11:39:18;;;;;;;19.33;9.47;;;5.10;99.90;;;;;;5024024;28;20200;-63
2022/11/25 11:41:50;;;;;;;25.47;11.03;;;5.10;99.90;;;;;;5034151;28;20200;-63
2022/11/25 11:44:24;;;;;;;26.17;11.93;;;5.10;99.90;;;;;;5028834;28;20233;-64
2022/11/25 11:47:10;;;;;;;31.20;13.87;;;5.10;99.90;;;;;;5028825;28;20195;-64
2022/11/25 11:50:08;;;;;;;26.40;11.70;;;5.10;99.90;;;;;;5022697;28;20650;-64
2022/11/25 11:52:49;;;;;;;30.13;13.47;;;5.00;99.90;;;;;;5007106;28;20235;-64
2022/11/25 11:55:39;;;;;;;27.60;13.97;;;5.00;99.90;;;;;;5028441;28;20568;-63
2022/11/25 11:58:21;;;;;;;23.10;11.27;;;5.20;99.90;;;;;;5026702;28;20571;-63
2022/11/25 12:00:57;;;;;;;25.23;10.97;;;5.00;99.90;;;;;;5028553;28;20266;-63
2022/11/25 12:03:27;;;;;;;24.33;11.07;;;5.10;99.90;;;;;;5026380;28;21130;-63
2022/11/25 12:05:57;;;;;;;27.27;12.00;;;5.00;99.90;;;;;;5024295;28;20257;-63
2022/11/25 12:08:31;;;;;;;29.50;14.00;;;5.10;99.90;;;;;;5028528;28;20374;-63
2022/11/25 12:11:03;;;;;;;31.30;13.07;;;5.00;99.90;;;;;;5029277;28;20200;-63
2022/11/25 12:13:37;;;;;;;28.33;12.80;;;5.00;99.90;;;;;;5027569;28;20297;-63
2022/11/25 12:16:10;;;;;;;30.10;13.30;;;5.00;99.90;;;;;;5027424;28;20299;-64
2022/11/25 12:18:46;;;;;;;26.10;11.97;;;4.90;99.90;;;;;;5024703;28;20197;-64
2022/11/25 12:21:28;;;;;;;24.07;10.60;;;4.90;99.90;;;;;;5011416;28;20377;-63
2022/11/25 12:24:03;;;;;;;32.33;14.67;;;5.00;99.90;;;;;;5028891;28;20505;-62
2022/11/25 12:26:43;;;;;;;26.77;13.17;;;5.00;99.90;;;;;;5027310;28;20195;-62
2022/11/25 12:29:18;;;;;;;30.13;13.57;;;5.00;99.90;;;;;;5028985;28;20203;-63
2022/11/25 12:31:50;;;;;;;26.90;12.70;;;5.10;99.90;;;;;;5028375;28;20318;-63
2022/11/25 12:34:22;;;;;;;18.73;9.67;;;5.10;99.90;;;;;;5027297;28;20203;-63
2022/11/25 12:36:51;;;;;;;19.00;10.17;;;5.10;99.90;;;;;;5028239;28;20254;-62
2022/11/25 12:39:26;;;;;;;19.73;9.77;;;5.10;99.90;;;;;;5025671;28;20291;-63
2022/11/25 12:41:57;;;;;;;21.07;10.33;;;5.20;99.90;;;;;;5024518;28;20225;-63
2022/11/25 12:44:30;;;;;;;25.90;11.40;;;5.20;99.90;;;;;;5024970;28;20540;-62
2022/11/25 12:46:58;;;;;;;26.10;12.53;;;5.20;99.90;;;;;;5025421;28;20220;-62
2022/11/25 12:49:27;;;;;;;32.20;15.97;;;5.20;99.90;;;;;;5024438;28;20244;-62
2022/11/25 12:52:11;;;;;;;40.07;16.97;;;5.20;99.90;;;;;;5022679;28;20254;-63
2022/11/25 12:55:00;;;;;;;31.90;14.73;;;5.20;99.90;;;;;;5025111;28;20191;-63
2022/11/25 12:57:51;;;;;;;33.97;15.47;;;5.20;99.90;;;;;;5025303;28;20643;-63
2022/11/25 13:00:23;;;;;;;38.77;17.07;;;5.10;99.90;;;;;;5027812;28;20631;-63
2022/11/25 13:03:28;;;;;;;35.30;15.83;;;5.20;99.90;;;;;;5028544;28;20242;-63
2022/11/25 13:06:21;;;;;;;33.57;14.43;;;5.10;99.90;;;;;;5024745;28;20309;-63
2022/11/25 13:09:00;;;;;;;32.73;14.00;;;5.10;99.90;;;;;;5026146;28;20294;-63